Time;durP1;ratioP1;P1;durP2;ratioP2;P2;SDS_P1;SDS_P2;PMS_P1;PMS_P2;Temp;Humidity;BMP_temperature;BMP_pressure;BME280_temperature;BME280_humidity;BME280_pressure;Samples;Min_cycle;Max_cycle;Signal;HPM_P1;HPM_P2
2023/10/22 00:02:19;;;;;;;8.65;2.10;;;27.50;99.90;;;;;;5075099;28;20556;-80
2023/10/22 00:04:50;;;;;;;6.65;1.63;;;27.70;99.90;;;;;;5074395;28;20185;-76
2023/10/22 00:07:21;;;;;;;6.68;1.83;;;27.80;99.90;;;;;;5074304;28;20279;-83
2023/10/22 00:09:53;;;;;;;6.95;1.80;;;27.80;99.90;;;;;;5074440;28;20201;-76
2023/10/22 00:12:24;;;;;;;5.97;1.67;;;27.90;99.90;;;;;;5074398;28;20239;-84
2023/10/22 00:14:55;;;;;;;6.47;1.92;;;27.90;99.90;;;;;;5074695;28;20220;-79
2023/10/22 00:17:28;;;;;;;7.00;2.10;;;28.00;99.90;;;;;;5074189;28;20569;-74
2023/10/22 00:19:59;;;;;;;6.28;1.83;;;28.00;99.90;;;;;;5074338;28;20221;-76
2023/10/22 00:22:30;;;;;;;7.47;2.00;;;28.00;99.90;;;;;;5074257;28;20193;-88
2023/10/22 00:25:01;;;;;;;8.27;1.98;;;28.00;99.90;;;;;;5074120;28;20565;-86
2023/10/22 00:27:32;;;;;;;7.38;1.90;;;28.10;99.90;;;;;;5089786;28;20275;-84
2023/10/22 00:30:03;;;;;;;6.32;1.73;;;28.20;99.90;;;;;;5088834;28;20220;-83
2023/10/22 00:32:36;;;;;;;9.25;2.05;;;28.30;99.90;;;;;;5084343;28;20192;-84
2023/10/22 00:35:07;;;;;;;5.38;2.00;;;28.30;99.90;;;;;;5077866;28;20205;-86
2023/10/22 00:37:38;;;;;;;4.63;1.80;;;28.40;99.90;;;;;;5075415;28;20203;-84
2023/10/22 00:40:10;;;;;;;6.63;1.98;;;28.60;99.90;;;;;;5093998;28;20216;-86
2023/10/22 00:42:41;;;;;;;5.70;1.80;;;28.70;99.90;;;;;;5084583;28;20193;-88
2023/10/22 00:45:12;;;;;;;5.38;1.77;;;28.80;99.90;;;;;;5089346;28;20196;-86
2023/10/22 00:47:46;;;;;;;5.72;1.73;;;28.90;99.90;;;;;;5092108;28;20214;-86
2023/10/22 00:50:17;;;;;;;5.47;1.67;;;28.90;99.90;;;;;;5092943;28;20231;-87
2023/10/22 00:52:48;;;;;;;4.97;1.95;;;29.00;99.90;;;;;;5089400;28;20248;-86
2023/10/22 00:55:19;;;;;;;6.28;1.63;;;29.00;99.90;;;;;;5093941;28;20275;-84
2023/10/22 00:57:50;;;;;;;4.32;1.70;;;28.90;99.90;;;;;;5080870;28;20219;-82
2023/10/22 01:00:23;;;;;;;4.53;1.80;;;29.00;99.90;;;;;;5073499;28;20317;-86
2023/10/22 01:02:56;;;;;;;5.60;1.80;;;29.10;99.90;;;;;;5086957;28;20200;-86
2023/10/22 01:05:27;;;;;;;4.95;1.73;;;29.30;99.90;;;;;;5073778;28;20630;-81
2023/10/22 01:07:58;;;;;;;5.68;1.80;;;29.60;99.90;;;;;;5073549;28;20664;-88
2023/10/22 01:10:29;;;;;;;7.20;1.92;;;29.80;99.90;;;;;;5073423;28;20193;-85
2023/10/22 01:13:00;;;;;;;5.45;1.80;;;29.90;99.90;;;;;;5073398;28;20279;-90
2023/10/22 01:15:31;;;;;;;4.25;1.80;;;30.00;99.90;;;;;;5086018;28;20227;-86
2023/10/22 01:18:05;;;;;;;4.68;1.65;;;30.10;99.90;;;;;;5084161;28;20197;-79
2023/10/22 01:20:35;;;;;;;6.07;1.85;;;30.20;99.90;;;;;;5080396;28;20649;-88
2023/10/22 01:23:06;;;;;;;5.55;1.67;;;30.20;99.90;;;;;;5091549;28;20285;-87
2023/10/22 01:25:39;;;;;;;5.13;2.28;;;30.10;99.90;;;;;;5092663;28;20203;-85
2023/10/22 01:28:10;;;;;;;8.45;1.52;;;29.90;99.90;;;;;;5089243;28;20243;-89
2023/10/22 01:30:41;;;;;;;5.57;1.67;;;30.00;99.90;;;;;;5087112;28;20279;-87
2023/10/22 01:33:12;;;;;;;5.47;1.83;;;30.20;99.90;;;;;;5091890;28;20204;-89
2023/10/22 01:35:43;;;;;;;3.92;1.58;;;30.20;99.90;;;;;;5086610;28;20223;-92
2023/10/22 01:38:14;;;;;;;4.63;1.65;;;30.30;99.90;;;;;;5085985;28;20735;-87
2023/10/22 01:40:47;;;;;;;5.32;1.77;;;30.30;99.90;;;;;;5091247;28;20201;-82
2023/10/22 01:43:18;;;;;;;8.10;2.08;;;30.60;99.90;;;;;;5080490;28;20203;-89
2023/10/22 01:45:49;;;;;;;5.68;1.80;;;30.40;99.90;;;;;;5089587;28;20196;-88
2023/10/22 01:48:20;;;;;;;8.45;1.65;;;30.20;99.90;;;;;;5085188;28;20203;-83
2023/10/22 01:50:50;;;;;;;4.82;1.42;;;29.70;99.90;;;;;;5080832;28;20587;-89
2023/10/22 01:53:21;;;;;;;2.40;1.30;;;29.50;99.90;;;;;;5091105;28;20659;-87
2023/10/22 01:55:54;;;;;;;3.95;1.40;;;29.50;99.90;;;;;;5091041;28;20291;-83
2023/10/22 01:58:25;;;;;;;6.85;1.45;;;29.40;99.90;;;;;;5092852;28;20191;-88
2023/10/22 02:01:05;;;;;;;4.03;1.52;;;29.30;99.90;;;;;;5093943;28;20280;-89
2023/10/22 02:03:37;;;;;;;4.72;1.45;;;29.10;99.90;;;;;;5077237;28;20598;-89
2023/10/22 02:06:14;;;;;;;6.68;1.90;;;28.80;99.90;;;;;;5091048;28;20196;-88
2023/10/22 02:08:45;;;;;;;4.20;1.25;;;28.50;99.90;;;;;;5095246;28;20196;-84
2023/10/22 02:11:18;;;;;;;6.03;1.65;;;28.30;99.90;;;;;;5097609;28;20192;-90
2023/10/22 02:13:48;;;;;;;4.70;1.55;;;28.10;99.90;;;;;;5096347;28;20204;-88
2023/10/22 02:16:19;;;;;;;6.05;1.30;;;27.90;99.90;;;;;;5096489;28;20283;-87
2023/10/22 02:18:50;;;;;;;6.03;1.70;;;27.90;99.90;;;;;;5095619;28;20563;-89
2023/10/22 02:21:25;;;;;;;6.00;1.50;;;27.90;99.90;;;;;;5092986;28;20202;-90
2023/10/22 02:23:56;;;;;;;4.55;1.60;;;27.90;99.90;;;;;;5089403;28;20203;-82
2023/10/22 02:26:29;;;;;;;8.23;1.70;;;27.90;99.90;;;;;;5091569;28;20227;-87
2023/10/22 02:29:00;;;;;;;4.28;1.08;;;28.00;99.90;;;;;;5095480;28;20223;-80
2023/10/22 02:31:31;;;;;;;5.28;1.45;;;27.90;99.90;;;;;;5094930;28;20188;-83
2023/10/22 02:34:09;;;;;;;8.88;1.33;;;27.80;99.90;;;;;;5084428;28;20199;-88
2023/10/22 02:36:40;;;;;;;4.20;1.40;;;27.80;99.90;;;;;;5087112;28;20202;-77
2023/10/22 02:39:12;;;;;;;6.90;1.50;;;27.70;99.90;;;;;;5088644;28;20248;-78
2023/10/22 02:41:46;;;;;;;6.38;1.80;;;27.60;99.90;;;;;;5095270;28;20279;-87
2023/10/22 02:44:17;;;;;;;11.20;1.65;;;27.70;99.90;;;;;;5096386;28;20196;-82
2023/10/22 02:46:48;;;;;;;5.03;1.60;;;27.70;99.90;;;;;;5077680;28;20204;-80
2023/10/22 02:49:18;;;;;;;4.95;1.60;;;27.80;99.90;;;;;;5087725;28;20203;-87
2023/10/22 02:51:50;;;;;;;6.05;1.38;;;27.80;99.90;;;;;;5082607;28;20298;-88
2023/10/22 02:54:21;;;;;;;4.18;1.42;;;27.70;99.90;;;;;;5095354;28;20192;-87
2023/10/22 02:56:54;;;;;;;4.57;1.33;;;27.60;99.90;;;;;;5096194;28;20188;-89
2023/10/22 02:59:25;;;;;;;4.93;1.20;;;27.50;99.90;;;;;;5094396;28;20212;-83
2023/10/22 03:01:56;;;;;;;5.43;1.30;;;27.40;99.90;;;;;;5095979;28;20192;-87
2023/10/22 03:04:28;;;;;;;4.53;1.30;;;27.50;99.90;;;;;;5094676;28;20600;-86
2023/10/22 03:06:58;;;;;;;5.88;1.48;;;27.50;99.90;;;;;;5076722;28;20243;-85
2023/10/22 03:09:29;;;;;;;6.93;1.58;;;27.50;99.90;;;;;;5075772;28;20193;-82
2023/10/22 03:12:02;;;;;;;8.80;1.40;;;27.70;99.90;;;;;;5075476;28;20242;-85
2023/10/22 03:14:33;;;;;;;6.65;1.13;;;27.70;99.90;;;;;;5075345;28;20196;-91
2023/10/22 03:17:03;;;;;;;5.45;1.20;;;27.60;99.90;;;;;;5075509;28;20185;-88
2023/10/22 03:19:34;;;;;;;4.18;1.23;;;27.60;99.90;;;;;;5075547;28;20217;-78
2023/10/22 03:22:05;;;;;;;4.18;1.27;;;27.70;99.90;;;;;;5076784;28;20565;-84
2023/10/22 03:24:36;;;;;;;3.22;1.10;;;27.80;99.90;;;;;;5083290;28;20203;-84
2023/10/22 03:27:09;;;;;;;5.03;1.20;;;27.80;99.90;;;;;;5075474;28;20204;-85
2023/10/22 03:29:39;;;;;;;4.32;1.17;;;27.80;99.90;;;;;;5075006;28;20227;-82
2023/10/22 03:32:10;;;;;;;4.47;1.13;;;27.90;99.90;;;;;;5074591;28;20211;-83
2023/10/22 03:34:41;;;;;;;4.00;1.27;;;28.00;99.90;;;;;;5075002;28;20205;-84
2023/10/22 03:37:12;;;;;;;6.38;1.00;;;28.10;99.90;;;;;;5075191;28;20185;-88
2023/10/22 03:39:43;;;;;;;3.08;0.90;;;28.20;99.90;;;;;;5080876;28;20771;-82
2023/10/22 03:42:15;;;;;;;5.07;0.95;;;28.30;99.90;;;;;;5075181;28;20242;-86
2023/10/22 03:44:46;;;;;;;4.32;0.80;;;28.40;99.90;;;;;;5074896;28;20192;-86
2023/10/22 03:47:17;;;;;;;3.05;1.20;;;28.60;99.90;;;;;;5085594;28;20631;-87
2023/10/22 03:49:48;;;;;;;5.43;0.98;;;28.60;99.90;;;;;;5094749;28;20192;-89
2023/10/22 03:52:18;;;;;;;2.55;0.70;;;28.70;99.90;;;;;;5078634;28;20235;-85
2023/10/22 03:54:49;;;;;;;5.53;0.60;;;28.80;99.90;;;;;;5085809;28;20208;-89
2023/10/22 03:57:22;;;;;;;5.22;1.00;;;29.00;96.00;;;;;;5089532;28;20193;-88
2023/10/22 03:59:53;;;;;;;3.88;1.10;;;29.50;99.90;;;;;;5074778;28;20700;-89
2023/10/22 04:02:24;;;;;;;2.97;0.55;;;29.50;99.90;;;;;;5083847;28;20193;-87
2023/10/22 04:04:55;;;;;;;2.00;0.57;;;29.40;92.80;;;;;;5086703;28;20284;-85
2023/10/22 04:07:26;;;;;;;3.20;0.93;;;29.60;95.30;;;;;;5083002;28;20189;-80
2023/10/22 04:09:57;;;;;;;2.13;0.50;;;29.60;99.90;;;;;;5083987;28;20188;-83
2023/10/22 04:12:29;;;;;;;4.05;0.70;;;29.50;91.50;;;;;;5079999;28;20247;-88
2023/10/22 04:15:01;;;;;;;2.25;0.57;;;29.70;88.30;;;;;;5082871;28;20192;-85
2023/10/22 04:17:32;;;;;;;0.77;0.40;;;29.80;89.30;;;;;;5084953;28;20201;-80
2023/10/22 04:20:03;;;;;;;2.08;0.50;;;30.00;82.60;;;;;;5084733;28;20582;-85
2023/10/22 04:22:33;;;;;;;2.90;0.50;;;30.10;79.80;;;;;;5085190;28;20238;-85
2023/10/22 04:25:04;;;;;;;3.30;0.40;;;30.10;79.60;;;;;;5091308;28;20197;-88
2023/10/22 04:27:37;;;;;;;2.33;0.43;;;30.10;77.80;;;;;;5084158;28;20216;-89
2023/10/22 04:30:09;;;;;;;2.33;0.65;;;30.20;76.10;;;;;;5073998;28;20188;-90
2023/10/22 04:32:40;;;;;;;3.60;0.95;;;30.30;79.20;;;;;;5073073;28;20189;-90
2023/10/22 04:35:11;;;;;;;5.78;1.00;;;30.00;97.40;;;;;;5092634;28;20242;-88
2023/10/22 04:37:42;;;;;;;5.47;0.60;;;29.70;98.90;;;;;;5087906;28;20195;-82
2023/10/22 04:40:13;;;;;;;3.42;0.77;;;29.60;84.80;;;;;;5084315;28;20683;-80
2023/10/22 04:42:46;;;;;;;6.45;1.20;;;29.70;92.10;;;;;;5083492;28;20739;-79
2023/10/22 04:45:17;;;;;;;3.67;1.20;;;29.60;99.90;;;;;;5075870;28;20228;-83
2023/10/22 04:47:48;;;;;;;3.03;1.30;;;29.20;99.90;;;;;;5083160;28;20192;-88
2023/10/22 04:50:18;;;;;;;6.93;1.30;;;28.90;99.90;;;;;;5081181;28;20238;-83
2023/10/22 04:52:49;;;;;;;5.47;1.20;;;28.50;99.90;;;;;;5084024;28;20199;-83
2023/10/22 04:55:20;;;;;;;5.80;1.48;;;28.10;99.90;;;;;;5083632;28;20185;-87
2023/10/22 04:57:54;;;;;;;6.45;1.10;;;28.00;99.90;;;;;;5085070;28;20278;-86
2023/10/22 05:00:52;;;;;;;6.97;1.60;;;28.00;99.90;;;;;;5107352;27;20578;-87
2023/10/22 05:03:23;;;;;;;3.42;0.90;;;27.80;99.90;;;;;;5107094;28;20555;-84
2023/10/22 05:05:55;;;;;;;6.47;1.10;;;27.80;99.90;;;;;;5108416;28;20190;-81
2023/10/22 05:08:28;;;;;;;6.43;1.63;;;27.80;99.90;;;;;;5109842;28;20194;-85
2023/10/22 05:10:59;;;;;;;8.43;1.40;;;27.00;99.90;;;;;;5107712;28;20184;-79
2023/10/22 05:13:30;;;;;;;7.03;1.60;;;26.70;99.90;;;;;;5109025;28;20211;-79
2023/10/22 05:16:03;;;;;;;6.20;1.48;;;26.30;99.90;;;;;;5110394;28;20275;-82
2023/10/22 05:18:34;;;;;;;6.60;1.20;;;26.10;99.90;;;;;;5106607;28;20689;-82
2023/10/22 05:21:09;;;;;;;7.25;1.50;;;25.60;99.90;;;;;;5103632;28;20202;-78
2023/10/22 05:23:40;;;;;;;4.72;1.45;;;25.50;99.90;;;;;;5097848;28;20328;-82
2023/10/22 05:26:11;;;;;;;5.82;1.33;;;25.40;99.90;;;;;;5100036;28;20192;-76
2023/10/22 05:28:42;;;;;;;6.57;1.23;;;25.40;99.90;;;;;;5090475;28;20219;-85
2023/10/22 05:31:19;;;;;;;5.00;1.40;;;25.40;99.90;;;;;;5091982;28;20292;-82
2023/10/22 05:33:50;;;;;;;6.30;1.30;;;25.40;99.90;;;;;;5092355;28;20287;-72
2023/10/22 05:36:22;;;;;;;4.88;1.40;;;25.50;99.90;;;;;;5094797;28;20316;-84
2023/10/22 05:38:54;;;;;;;6.28;1.27;;;25.50;99.90;;;;;;5098209;28;20220;-84
2023/10/22 05:41:25;;;;;;;7.43;1.33;;;25.50;99.90;;;;;;5101732;28;20228;-87
2023/10/22 05:43:59;;;;;;;8.82;1.25;;;25.40;99.90;;;;;;5108307;28;20192;-77
2023/10/22 05:46:33;;;;;;;6.75;1.30;;;25.40;99.90;;;;;;5098989;28;20206;-84
2023/10/22 05:49:05;;;;;;;4.18;1.40;;;25.30;99.90;;;;;;5088751;28;20199;-73
2023/10/22 05:51:36;;;;;;;6.53;1.52;;;25.20;99.90;;;;;;5095949;28;20201;-75
2023/10/22 05:54:07;;;;;;;7.32;1.40;;;25.20;99.90;;;;;;5098499;28;20695;-84
2023/10/22 05:56:41;;;;;;;7.68;1.75;;;25.10;99.90;;;;;;5094323;28;20196;-81
2023/10/22 05:59:11;;;;;;;7.22;1.70;;;25.00;99.90;;;;;;5095397;28;20239;-74
2023/10/22 06:01:44;;;;;;;8.88;1.15;;;24.90;99.90;;;;;;5094713;28;20196;-72
2023/10/22 06:04:15;;;;;;;6.35;1.40;;;24.80;99.90;;;;;;5097338;28;20188;-72
2023/10/22 06:06:46;;;;;;;5.93;1.10;;;24.70;99.90;;;;;;5094100;28;20204;-80
2023/10/22 06:09:18;;;;;;;3.75;1.20;;;24.80;99.90;;;;;;5097766;28;20201;-77
2023/10/22 06:11:49;;;;;;;7.65;1.65;;;24.90;99.90;;;;;;5087071;28;20587;-77
2023/10/22 06:14:19;;;;;;;6.03;1.60;;;25.00;99.90;;;;;;5075305;28;20199;-77
2023/10/22 06:16:52;;;;;;;6.63;1.33;;;25.10;99.90;;;;;;5075028;28;20283;-77
2023/10/22 06:19:23;;;;;;;5.22;1.40;;;25.00;99.90;;;;;;5077395;28;20224;-79
2023/10/22 06:21:54;;;;;;;8.40;1.73;;;25.00;99.90;;;;;;5075445;28;20207;-83
2023/10/22 06:24:25;;;;;;;8.88;1.55;;;25.00;99.90;;;;;;5083327;28;20250;-75
2023/10/22 06:26:56;;;;;;;7.57;1.52;;;25.00;99.90;;;;;;5083838;28;20252;-77
2023/10/22 06:29:26;;;;;;;6.60;1.73;;;24.90;99.90;;;;;;5084226;28;20280;-82
2023/10/22 06:31:59;;;;;;;6.18;1.55;;;24.90;99.90;;;;;;5080478;28;20195;-76
2023/10/22 06:34:30;;;;;;;6.97;1.88;;;25.00;99.90;;;;;;5080527;28;20245;-75
2023/10/22 06:37:01;;;;;;;5.25;1.35;;;25.00;99.90;;;;;;5089797;28;20283;-73
2023/10/22 06:39:32;;;;;;;5.75;1.50;;;25.00;99.90;;;;;;5081729;28;20692;-76
2023/10/22 06:42:03;;;;;;;6.13;1.50;;;25.00;99.90;;;;;;5083393;28;20617;-77
2023/10/22 06:44:33;;;;;;;6.00;1.58;;;24.90;99.90;;;;;;5085896;28;20253;-79
2023/10/22 06:47:06;;;;;;;8.38;1.63;;;24.70;99.90;;;;;;5078800;28;20199;-80
2023/10/22 06:49:37;;;;;;;5.43;1.40;;;24.60;99.90;;;;;;5085522;28;20249;-88
2023/10/22 06:52:08;;;;;;;5.63;1.23;;;24.60;99.90;;;;;;5089593;28;20231;-85
2023/10/22 06:54:39;;;;;;;5.53;1.33;;;24.50;99.90;;;;;;5076674;28;20203;-88
2023/10/22 06:57:10;;;;;;;5.18;1.35;;;24.50;99.90;;;;;;5087856;28;20285;-86
2023/10/22 06:59:41;;;;;;;4.72;1.30;;;24.60;99.90;;;;;;5081025;28;20232;-83
2023/10/22 07:02:13;;;;;;;5.38;1.13;;;24.60;99.90;;;;;;5079196;28;20193;-87
2023/10/22 07:04:44;;;;;;;7.72;1.60;;;24.60;99.90;;;;;;5077515;28;20305;-89
2023/10/22 07:07:15;;;;;;;6.88;1.48;;;24.60;99.90;;;;;;5073103;28;20274;-83
2023/10/22 07:09:46;;;;;;;5.75;1.40;;;24.50;99.90;;;;;;5080440;28;20291;-80
2023/10/22 07:12:17;;;;;;;5.28;1.27;;;24.40;99.90;;;;;;5079877;28;20199;-78
2023/10/22 07:14:48;;;;;;;4.20;1.48;;;24.30;99.90;;;;;;5083591;28;20271;-88
2023/10/22 07:17:21;;;;;;;4.20;1.25;;;24.30;99.90;;;;;;5083242;28;20284;-86
2023/10/22 07:19:51;;;;;;;5.70;1.20;;;24.40;99.90;;;;;;5080560;28;20224;-83
2023/10/22 07:22:22;;;;;;;5.65;1.55;;;24.40;99.90;;;;;;5080634;28;20203;-90
2023/10/22 07:24:54;;;;;;;4.57;1.48;;;24.40;99.90;;;;;;5078624;28;20291;-83
2023/10/22 07:27:24;;;;;;;6.05;1.50;;;24.40;99.90;;;;;;5081676;28;20220;-86
2023/10/22 07:29:58;;;;;;;3.17;1.05;;;24.40;99.90;;;;;;5078223;28;20664;-82
2023/10/22 07:32:31;;;;;;;1.63;0.60;;;24.40;99.90;;;;;;5074828;28;20201;-82
2023/10/22 07:35:02;;;;;;;2.45;0.50;;;24.60;93.10;;;;;;5085213;28;20292;-85
2023/10/22 07:37:33;;;;;;;1.42;0.57;;;25.00;87.20;;;;;;5084750;28;20205;-88
2023/10/22 07:40:04;;;;;;;0.75;0.50;;;25.40;82.10;;;;;;5074087;28;20212;-88
2023/10/22 07:42:36;;;;;;;1.50;0.52;;;25.60;82.30;;;;;;5074946;28;20690;-88
2023/10/22 07:45:07;;;;;;;2.42;0.50;;;25.70;76.00;;;;;;5077758;28;20200;-81
2023/10/22 07:47:40;;;;;;;0.73;0.38;;;25.80;76.40;;;;;;5077765;28;20732;-88
2023/10/22 07:50:12;;;;;;;2.88;0.85;;;25.80;77.80;;;;;;5077519;28;20198;-85
2023/10/22 07:52:43;;;;;;;4.57;1.15;;;25.70;92.60;;;;;;5073478;28;20219;-87
2023/10/22 07:55:13;;;;;;;2.67;0.50;;;25.40;94.10;;;;;;5081823;28;20284;-85
2023/10/22 07:57:44;;;;;;;0.75;0.40;;;25.30;80.90;;;;;;5083634;28;20232;-80
2023/10/22 08:00:16;;;;;;;0.40;0.38;;;25.20;77.70;;;;;;5071365;28;20232;-73
2023/10/22 08:02:49;;;;;;;1.50;0.40;;;25.20;77.10;;;;;;5084745;28;20196;-85
2023/10/22 08:05:20;;;;;;;2.58;0.50;;;25.20;74.40;;;;;;5090788;28;20787;-85
2023/10/22 08:07:50;;;;;;;1.88;0.50;;;25.20;76.10;;;;;;5091791;28;20197;-86
2023/10/22 08:10:21;;;;;;;2.33;0.50;;;25.20;75.00;;;;;;5090894;28;20196;-85
2023/10/22 08:12:52;;;;;;;3.45;0.40;;;25.10;73.60;;;;;;5079488;28;20201;-87
2023/10/22 08:15:23;;;;;;;0.80;0.43;;;25.10;75.40;;;;;;5079248;28;20678;-86
2023/10/22 08:17:55;;;;;;;2.40;0.50;;;25.10;73.20;;;;;;5091605;28;20210;-85
2023/10/22 08:20:26;;;;;;;0.80;0.40;;;25.10;73.00;;;;;;5078417;28;20216;-76
2023/10/22 08:22:57;;;;;;;1.45;0.43;;;25.20;72.70;;;;;;5091526;28;20648;-89
2023/10/22 08:25:28;;;;;;;1.08;0.50;;;25.20;72.10;;;;;;5091491;28;20223;-87
2023/10/22 08:27:59;;;;;;;0.85;0.40;;;25.20;72.30;;;;;;5091256;28;20206;-87
2023/10/22 08:30:30;;;;;;;3.58;0.40;;;25.10;72.80;;;;;;5091734;28;20283;-89
2023/10/22 08:33:03;;;;;;;2.83;0.50;;;25.10;72.20;;;;;;5091447;28;20265;-86
2023/10/22 08:35:34;;;;;;;1.25;0.32;;;25.10;73.10;;;;;;5090602;28;20217;-83
2023/10/22 08:38:05;;;;;;;2.20;0.40;;;25.00;73.20;;;;;;5079038;28;20201;-83
2023/10/22 08:40:38;;;;;;;0.60;0.40;;;24.90;73.70;;;;;;5085684;28;20216;-81
2023/10/22 08:43:12;;;;;;;1.20;0.40;;;24.80;74.30;;;;;;5080128;28;20567;-84
2023/10/22 08:45:45;;;;;;;2.00;0.80;;;24.80;74.50;;;;;;5077609;28;20200;-86
2023/10/22 08:48:19;;;;;;;0.93;0.40;;;24.70;75.30;;;;;;5086588;28;20574;-86
2023/10/22 08:50:50;;;;;;;1.10;0.65;;;24.60;75.70;;;;;;5090682;28;20200;-86
2023/10/22 08:53:24;;;;;;;1.02;0.50;;;24.50;76.40;;;;;;5081588;28;20231;-83
2023/10/22 08:55:56;;;;;;;2.70;0.60;;;24.50;76.50;;;;;;5080447;28;20608;-81
2023/10/22 08:58:27;;;;;;;2.25;0.70;;;24.50;77.10;;;;;;5089175;28;20203;-86
2023/10/22 09:00:58;;;;;;;0.80;0.50;;;24.40;77.50;;;;;;5085133;28;20209;-87
2023/10/22 09:03:31;;;;;;;0.85;0.52;;;24.40;77.60;;;;;;5089293;28;20188;-85
2023/10/22 09:06:05;;;;;;;1.58;0.60;;;24.30;78.00;;;;;;5082648;28;20193;-84
2023/10/22 09:08:46;;;;;;;1.25;0.68;;;24.30;78.30;;;;;;5090434;28;20207;-84
2023/10/22 09:11:18;;;;;;;0.95;0.50;;;24.20;78.50;;;;;;5085161;28;20203;-76
2023/10/22 09:13:49;;;;;;;1.00;0.60;;;24.20;78.80;;;;;;5079916;28;20283;-88
2023/10/22 09:16:34;;;;;;;3.38;0.70;;;24.10;78.50;;;;;;5076102;28;20197;-90
2023/10/22 09:19:06;;;;;;;3.17;0.57;;;24.10;78.80;;;;;;5085774;28;20228;-90
2023/10/22 09:21:47;;;;;;;1.35;0.50;;;24.10;79.20;;;;;;5074272;28;20248;-88
2023/10/22 09:24:18;;;;;;;1.70;0.50;;;24.00;79.50;;;;;;5077758;28;20205;-82
2023/10/22 09:26:49;;;;;;;2.70;0.50;;;23.90;79.90;;;;;;5088687;28;20565;-85
2023/10/22 09:29:20;;;;;;;3.28;0.50;;;23.90;80.00;;;;;;5081547;28;20189;-79
2023/10/22 09:31:55;;;;;;;1.48;0.40;;;23.80;80.50;;;;;;5084764;28;20218;-85
2023/10/22 09:34:32;;;;;;;0.50;0.43;;;23.70;80.70;;;;;;5090058;28;20648;-90
2023/10/22 09:37:03;;;;;;;1.00;0.50;;;23.70;80.70;;;;;;5092637;28;20199;-86
2023/10/22 09:39:38;;;;;;;0.73;0.43;;;23.60;81.20;;;;;;5092864;28;20200;-86
2023/10/22 09:42:10;;;;;;;1.73;0.60;;;23.60;81.20;;;;;;5092530;28;20219;-80
2023/10/22 09:44:44;;;;;;;1.35;0.52;;;23.50;81.40;;;;;;5090607;28;20204;-78
2023/10/22 09:47:22;;;;;;;1.02;0.50;;;23.40;81.50;;;;;;5080777;28;20446;-78
2023/10/22 09:49:59;;;;;;;3.35;0.50;;;23.40;82.00;;;;;;5087437;28;20196;-86
2023/10/22 09:52:33;;;;;;;1.00;0.57;;;23.30;82.40;;;;;;5092084;28;20291;-82
2023/10/22 09:55:08;;;;;;;2.38;0.77;;;23.30;82.60;;;;;;5089295;28;20227;-84
2023/10/22 09:57:39;;;;;;;1.20;0.65;;;23.20;83.00;;;;;;5095489;28;20233;-88
2023/10/22 10:00:14;;;;;;;1.15;0.70;;;23.20;83.50;;;;;;5089242;28;20267;-84
2023/10/22 10:02:46;;;;;;;0.90;0.52;;;23.00;84.20;;;;;;5083585;28;20208;-84
2023/10/22 10:05:21;;;;;;;2.33;0.75;;;22.90;85.00;;;;;;5092779;28;20196;-88
2023/10/22 10:07:52;;;;;;;2.38;0.70;;;22.90;85.60;;;;;;5088691;28;20196;-85
2023/10/22 10:10:24;;;;;;;2.13;0.70;;;22.80;86.00;;;;;;5080205;28;20613;-88
2023/10/22 10:12:54;;;;;;;1.55;0.47;;;22.80;86.60;;;;;;5089996;28;20197;-86
2023/10/22 10:15:43;;;;;;;1.95;0.50;;;22.70;87.00;;;;;;5083760;28;20284;-87
2023/10/22 10:18:14;;;;;;;1.67;0.50;;;22.70;87.70;;;;;;5088522;28;20283;-88
2023/10/22 10:20:47;;;;;;;1.30;0.40;;;22.70;87.90;;;;;;5084097;28;20220;-88
2023/10/22 10:23:21;;;;;;;0.57;0.40;;;22.60;88.40;;;;;;5079688;28;20558;-84
2023/10/22 10:25:51;;;;;;;1.17;0.50;;;22.60;88.70;;;;;;5084762;28;20579;-87
2023/10/22 10:28:44;;;;;;;0.85;0.40;;;22.50;89.20;;;;;;5082608;28;20193;-75
2023/10/22 10:31:34;;;;;;;1.27;0.35;;;22.40;89.80;;;;;;5083284;28;20196;-81
2023/10/22 10:34:05;;;;;;;1.20;0.47;;;22.40;90.30;;;;;;5084752;28;20567;-87
2023/10/22 10:36:39;;;;;;;0.70;0.40;;;22.30;90.60;;;;;;5078761;28;20680;-76
2023/10/22 10:39:39;;;;;;;0.60;0.50;;;22.20;91.20;;;;;;5083672;28;20201;-77
2023/10/22 10:42:11;;;;;;;1.33;0.60;;;22.10;91.50;;;;;;5040976;28;20233;-84
2023/10/22 10:45:06;;;;;;;0.98;0.60;;;22.00;91.50;;;;;;5085141;28;20192;-80
2023/10/22 10:47:39;;;;;;;1.38;0.57;;;22.00;92.10;;;;;;5078703;28;20726;-76
2023/10/22 10:50:11;;;;;;;2.88;0.60;;;21.90;92.70;;;;;;5072693;28;20196;-82
2023/10/22 10:53:02;;;;;;;0.95;0.50;;;21.70;93.00;;;;;;5078347;28;20201;-86
2023/10/22 10:55:36;;;;;;;0.68;0.50;;;21.60;93.50;;;;;;5090279;28;20287;-78
2023/10/22 10:58:07;;;;;;;1.65;0.70;;;21.40;93.50;;;;;;5082517;28;20192;-81
2023/10/22 11:00:38;;;;;;;1.88;0.73;;;21.30;93.60;;;;;;5083296;28;20323;-73
2023/10/22 11:03:10;;;;;;;1.10;0.50;;;21.20;93.80;;;;;;5083562;28;20688;-81
2023/10/22 11:05:42;;;;;;;1.42;0.60;;;21.20;94.10;;;;;;5082386;28;20192;-81
2023/10/22 11:08:18;;;;;;;1.85;0.70;;;21.10;94.00;;;;;;5081342;28;20196;-86
2023/10/22 11:10:49;;;;;;;1.90;0.80;;;21.10;94.00;;;;;;5071996;28;20210;-84
2023/10/22 11:13:29;;;;;;;1.30;0.50;;;21.10;94.00;;;;;;5085516;28;20199;-75
2023/10/22 11:16:08;;;;;;;2.38;0.70;;;21.10;93.90;;;;;;5082094;28;20197;-83
2023/10/22 11:18:56;;;;;;;2.92;0.70;;;21.20;94.00;;;;;;5080398;28;20200;-81
2023/10/22 11:21:28;;;;;;;1.73;0.60;;;21.20;94.60;;;;;;5076245;28;20216;-81
2023/10/22 11:24:01;;;;;;;1.42;0.60;;;21.10;95.20;;;;;;5074468;28;20211;-83
2023/10/22 11:26:32;;;;;;;0.93;0.63;;;21.10;95.40;;;;;;5083106;28;20185;-88
2023/10/22 11:29:03;;;;;;;0.50;0.40;;;21.00;95.30;;;;;;5083590;28;20192;-86
2023/10/22 11:31:34;;;;;;;1.77;0.80;;;21.00;95.20;;;;;;5077895;28;20636;-82
2023/10/22 11:34:17;;;;;;;0.95;0.55;;;20.90;95.00;;;;;;5082784;28;20188;-85
2023/10/22 11:36:47;;;;;;;1.13;0.68;;;20.90;95.30;;;;;;5081041;28;20203;-79
2023/10/22 11:39:23;;;;;;;1.25;0.50;;;20.90;95.90;;;;;;5079118;28;20198;-81
2023/10/22 11:42:00;;;;;;;2.22;0.50;;;20.80;95.90;;;;;;5071639;28;20224;-82
2023/10/22 11:44:33;;;;;;;1.58;0.60;;;20.80;96.50;;;;;;5083003;28;20532;-82
2023/10/22 11:47:06;;;;;;;3.17;0.50;;;20.70;97.10;;;;;;5085709;28;20283;-86
2023/10/22 11:49:49;;;;;;;3.75;0.70;;;20.70;97.50;;;;;;5073021;28;20229;-85
2023/10/22 11:52:35;;;;;;;2.22;0.57;;;20.60;97.80;;;;;;5077454;28;20200;-83
2023/10/22 11:55:09;;;;;;;1.30;0.60;;;20.50;98.20;;;;;;5078349;28;20192;-85
2023/10/22 11:57:41;;;;;;;1.77;0.60;;;20.40;97.80;;;;;;5079606;28;20196;-80
2023/10/22 12:00:14;;;;;;;0.75;0.47;;;20.40;97.50;;;;;;5082651;28;20246;-80
2023/10/22 12:02:45;;;;;;;2.20;0.50;;;20.40;97.40;;;;;;5079351;28;20216;-86
2023/10/22 12:05:16;;;;;;;1.88;0.60;;;20.40;97.40;;;;;;5080224;28;20211;-85
2023/10/22 12:07:46;;;;;;;1.92;0.70;;;20.50;97.40;;;;;;5077767;28;20201;-82
2023/10/22 12:10:19;;;;;;;1.30;0.52;;;20.50;97.40;;;;;;5079309;28;20200;-87
2023/10/22 12:12:51;;;;;;;1.67;0.60;;;20.40;97.50;;;;;;5082713;28;20675;-87
2023/10/22 12:15:22;;;;;;;1.67;0.50;;;20.40;98.10;;;;;;5083843;28;20193;-85
2023/10/22 12:17:53;;;;;;;2.13;0.80;;;20.30;98.60;;;;;;5088576;28;20297;-87
2023/10/22 12:20:24;;;;;;;2.10;0.63;;;20.10;98.70;;;;;;5083858;28;20199;-84
2023/10/22 12:22:55;;;;;;;1.10;0.32;;;20.00;99.20;;;;;;5085077;28;20213;-81
2023/10/22 12:25:31;;;;;;;2.47;0.47;;;19.90;99.60;;;;;;5074306;28;20216;-86
2023/10/22 12:28:02;;;;;;;1.48;0.63;;;19.90;99.90;;;;;;5076958;28;20661;-84
2023/10/22 12:30:33;;;;;;;2.25;0.70;;;19.80;99.80;;;;;;5093421;28;20280;-85
2023/10/22 12:33:05;;;;;;;2.50;0.63;;;19.80;99.90;;;;;;5090206;28;20224;-85
2023/10/22 12:35:36;;;;;;;1.52;0.60;;;19.80;99.90;;;;;;5093773;28;20192;-80
2023/10/22 12:38:06;;;;;;;2.67;0.70;;;19.80;99.80;;;;;;5092462;28;20192;-78
2023/10/22 12:40:39;;;;;;;2.78;0.60;;;19.80;99.80;;;;;;5072744;28;20189;-82
2023/10/22 12:43:10;;;;;;;1.42;0.45;;;19.80;99.90;;;;;;5077420;28;20559;-85
2023/10/22 12:45:42;;;;;;;1.13;0.43;;;19.90;99.90;;;;;;5072883;28;20564;-86
2023/10/22 12:48:13;;;;;;;1.23;0.50;;;19.80;99.90;;;;;;5073366;28;20197;-83
2023/10/22 12:50:51;;;;;;;1.83;0.40;;;19.80;99.90;;;;;;5077755;28;20188;-86
2023/10/22 12:53:22;;;;;;;2.72;0.70;;;19.70;99.90;;;;;;5086278;28;20238;-86
2023/10/22 12:56:00;;;;;;;2.13;0.77;;;19.60;99.90;;;;;;5079095;28;20197;-82
2023/10/22 12:58:31;;;;;;;1.25;0.60;;;19.40;99.90;;;;;;5081203;28;20239;-80
2023/10/22 13:01:02;;;;;;;1.23;0.60;;;19.30;99.90;;;;;;5078418;28;20201;-78
2023/10/22 13:03:33;;;;;;;3.60;0.60;;;19.20;99.90;;;;;;5074056;28;20203;-79
2023/10/22 13:06:06;;;;;;;1.67;0.50;;;19.20;99.90;;;;;;5077388;28;20196;-81
2023/10/22 13:08:36;;;;;;;1.10;0.65;;;19.10;99.90;;;;;;5085286;28;20207;-82
2023/10/22 13:11:09;;;;;;;2.42;0.77;;;19.10;99.90;;;;;;5078992;28;20205;-81
2023/10/22 13:13:40;;;;;;;2.20;0.75;;;19.00;99.90;;;;;;5074343;28;20196;-85
2023/10/22 13:16:11;;;;;;;1.67;0.77;;;19.00;99.90;;;;;;5082830;28;20204;-79